createdAt,value
2022-09-05T00:00:31.280Z,99910.56
2022-09-05T00:03:18.357Z,99914.81
2022-09-05T00:06:02.760Z,99915.94
2022-09-05T00:08:45.386Z,99918.75
2022-09-05T00:11:40.917Z,99918.25
2022-09-05T00:15:17.055Z,99910.50
2022-09-05T00:18:22.690Z,99913.63
2022-09-05T00:24:28.797Z,99911.47
2022-09-05T00:24:35.592Z,99906.56
2022-09-05T00:26:52.646Z,99908.81
2022-09-05T00:31:05.319Z,99909.16
2022-09-05T00:32:43.977Z,99912.59
2022-09-05T00:35:43.651Z,99916.06
2022-09-05T00:38:16.342Z,99910.47
2022-09-05T00:40:49.653Z,99909.97
2022-09-05T00:43:24.301Z,99908.94
2022-09-05T00:46:00.006Z,99916.53
2022-09-05T00:48:39.336Z,99915.19
2022-09-05T00:51:28.634Z,99916.31
2022-09-05T00:54:48.272Z,99912.03
2022-09-05T00:57:54.430Z,99911.53
2022-09-05T01:00:35.108Z,99911.84
2022-09-05T01:03:33.304Z,99916.44
2022-09-05T01:06:16.563Z,99911.97
2022-09-05T01:09:22.660Z,99919.34
2022-09-05T01:12:07.573Z,99917.41
2022-09-05T01:15:14.547Z,99913.59
2022-09-05T01:18:20.527Z,99919.19
2022-09-05T01:21:14.041Z,99911.44
2022-09-05T01:24:27.665Z,99910.94
2022-09-05T01:29:14.250Z,99909.44
2022-09-05T01:30:44.818Z,99909.13
2022-09-05T01:33:28.457Z,99910.25
2022-09-05T01:36:27.377Z,99909.22
2022-09-05T01:40:10.446Z,99910.38
2022-09-05T01:42:02.207Z,99907.03
2022-09-05T01:44:56.306Z,99908.84
2022-09-05T01:47:38.245Z,99905.72
2022-09-05T01:50:28.640Z,99906.38
2022-09-05T01:53:25.580Z,99902.75
2022-09-05T01:56:35.360Z,99908.66
2022-09-05T01:59:20.926Z,99904.53
2022-09-05T02:02:37.517Z,99909.91
2022-09-05T02:05:51.893Z,99915.00
2022-09-05T02:08:39.602Z,99908.28
2022-09-05T02:11:12.330Z,99917.50
2022-09-05T02:14:06.085Z,99922.03
2022-09-05T02:16:45.054Z,99924.84
2022-09-05T02:19:23.348Z,99921.22
2022-09-05T02:22:02.534Z,99923.22
2022-09-05T02:24:39.029Z,99915.97
2022-09-05T02:28:03.637Z,99923.00
2022-09-05T02:30:17.379Z,99920.53
2022-09-05T02:33:13.732Z,99926.75
2022-09-05T02:35:49.491Z,99923.97
2022-09-05T02:40:45.980Z,99926.44
2022-09-05T02:45:07.124Z,99924.06
2022-09-05T02:45:09.269Z,99920.66
2022-09-05T02:47:22.553Z,99921.09
2022-09-05T02:51:45.036Z,99924.03
2022-09-05T02:57:25.031Z,99933.84
2022-09-05T02:58:04.665Z,99925.91
2022-09-05T02:59:47.572Z,99927.38
2022-09-05T03:02:28.252Z,99922.63
2022-09-05T03:05:05.792Z,99920.16
2022-09-05T03:08:08.884Z,99923.91
2022-09-05T03:11:29.543Z,99936.00
2022-09-05T03:14:54.482Z,99938.59
2022-09-05T03:18:31.354Z,99934.13
2022-09-05T03:21:39.681Z,99932.00
2022-09-05T03:25:17.794Z,99934.53
2022-09-05T03:28:52.896Z,99927.63
2022-09-05T03:32:06.802Z,99935.47
2022-09-05T03:35:17.306Z,99937.75
2022-09-05T03:38:22.952Z,99930.22
2022-09-05T03:41:18.947Z,99924.97
2022-09-05T03:44:16.082Z,99922.19
2022-09-05T03:47:13.554Z,99923.81
2022-09-05T03:57:04.295Z,99928.88
2022-09-05T03:57:15.713Z,99923.13
2022-09-05T03:57:42.741Z,99930.66
2022-09-05T04:00:22.229Z,99929.81
2022-09-05T04:08:10.906Z,99932.63
2022-09-05T04:08:25.372Z,99934.28
2022-09-05T04:09:11.004Z,99935.06
2022-09-05T04:11:46.117Z,99937.88
2022-09-05T04:14:25.552Z,99934.56
2022-09-05T04:16:59.482Z,99943.75
2022-09-05T04:19:36.251Z,99944.88
2022-09-05T04:22:20.541Z,99947.19
2022-09-05T04:25:00.479Z,99938.00
2022-09-05T04:27:46.817Z,99947.19
2022-09-05T04:30:38.984Z,99941.09
2022-09-05T04:33:33.500Z,99945.53
2022-09-05T04:36:23.387Z,99949.16
2022-09-05T04:39:10.061Z,99943.59
2022-09-05T04:41:44.416Z,99954.91
2022-09-05T04:44:17.361Z,99957.38
2022-09-05T04:46:53.638Z,99965.47
2022-09-05T04:49:28.494Z,99973.50
2022-09-05T04:52:45.425Z,99972.16
2022-09-05T04:55:18.586Z,99963.69
2022-09-05T04:57:54.804Z,99972.25
2022-09-05T05:06:03.838Z,99978.88
2022-09-05T05:06:11.900Z,99974.00
2022-09-05T05:06:36.774Z,99973.91
2022-09-05T05:09:18.831Z,99977.72
2022-09-05T05:17:55.434Z,99987.13
2022-09-05T05:18:07.470Z,99983.69
2022-09-05T05:18:08.630Z,99987.19
2022-09-05T05:20:51.278Z,99979.84
2022-09-05T05:23:30.280Z,99976.09
2022-09-05T05:26:02.989Z,99975.97
2022-09-05T05:28:53.766Z,99981.44
2022-09-05T05:31:28.031Z,99987.41
2022-09-05T05:34:03.933Z,99987.81
2022-09-05T05:37:02.912Z,99990.97
2022-09-05T05:39:35.065Z,99993.81
2022-09-05T05:42:19.360Z,99998.16
2022-09-05T05:44:53.825Z,99996.91
2022-09-05T05:47:31.891Z,100000.88
2022-09-05T05:50:11.412Z,99999.63
2022-09-05T05:53:31.992Z,100001.44
2022-09-05T05:56:22.507Z,100002.94
2022-09-05T05:59:11.344Z,100000.34
2022-09-05T06:02:24.180Z,100006.16
2022-09-05T06:05:46.695Z,100000.16
2022-09-05T06:14:55.252Z,100007.13
2022-09-05T06:15:02.949Z,100006.06
2022-09-05T06:17:06.122Z,100004.94
2022-09-05T06:22:04.998Z,100015.84
2022-09-05T06:24:09.386Z,100013.41
2022-09-05T06:27:10.362Z,100013.06
2022-09-05T06:29:57.020Z,100006.38
2022-09-05T06:32:46.804Z,100012.63
2022-09-05T06:35:35.281Z,100004.75
2022-09-05T06:38:27.320Z,100001.59
2022-09-05T06:41:19.837Z,100001.59
2022-09-05T06:44:47.940Z,100001.91
2022-09-05T06:47:33.376Z,100001.41
2022-09-05T06:50:27.146Z,100002.75
2022-09-05T06:53:42.496Z,100004.38
2022-09-05T06:56:59.710Z,100001.34
2022-09-05T07:00:21.698Z,100009.91
2022-09-05T07:03:18.419Z,100000.09
2022-09-05T07:05:56.761Z,100010.16
2022-09-05T07:08:37.670Z,100009.31
2022-09-05T07:11:16.792Z,100010.41
2022-09-05T07:14:02.702Z,100013.50
2022-09-05T07:16:47.449Z,100012.84
2022-09-05T07:19:27.480Z,100013.47
2022-09-05T07:22:45.915Z,100016.56
2022-09-05T07:25:09.578Z,100022.06
2022-09-05T07:28:25.882Z,100022.19
2022-09-05T07:30:35.145Z,100027.53
2022-09-05T07:33:06.247Z,100032.75
2022-09-05T07:35:41.952Z,100029.53
2022-09-05T07:38:16.400Z,100028.28
2022-09-05T07:40:54.360Z,100034.28
2022-09-05T07:43:28.079Z,100025.63
2022-09-05T07:46:11.753Z,100030.13
2022-09-05T07:48:48.059Z,100027.00
2022-09-05T07:56:50.856Z,100019.38
2022-09-05T07:57:09.946Z,100021.97
2022-09-05T07:57:25.558Z,100020.00
2022-09-05T08:00:08.083Z,100020.34
2022-09-05T08:02:54.985Z,100012.09
2022-09-05T08:05:35.143Z,100012.81
2022-09-05T08:08:09.896Z,100011.63
2022-09-05T08:11:24.808Z,100015.97
2022-09-05T08:14:40.428Z,100022.28
2022-09-05T08:16:54.773Z,100015.41
2022-09-05T08:19:50.535Z,100018.88
2022-09-05T08:22:25.259Z,100013.75
2022-09-05T08:25:04.673Z,100015.72
2022-09-05T08:27:45.738Z,100016.91
2022-09-05T08:30:25.617Z,100001.53
2022-09-05T08:33:11.078Z,99999.72
2022-09-05T08:35:45.362Z,100009.44
2022-09-05T08:38:17.191Z,100003.03
2022-09-05T08:40:54.705Z,100000.09
2022-09-05T08:46:35.274Z,99997.75
2022-09-05T08:46:43.071Z,99987.28
2022-09-05T08:49:45.546Z,99991.84
2022-09-05T08:52:26.337Z,99993.06
2022-09-05T08:55:10.855Z,99983.69
2022-09-05T08:58:20.177Z,99988.06
2022-09-05T09:01:00.254Z,99983.91
2022-09-05T09:03:35.617Z,99983.25
2022-09-05T09:07:30.757Z,99987.84
2022-09-05T09:09:55.486Z,99984.03
2022-09-05T09:13:08.690Z,99979.09
2022-09-05T09:15:42.188Z,99981.53
2022-09-05T09:18:16.207Z,99972.06
2022-09-05T09:20:53.501Z,99963.53
2022-09-05T09:23:47.650Z,99964.75
2022-09-05T09:26:18.566Z,99967.50
2022-09-05T09:28:55.479Z,99960.03
2022-09-05T09:31:38.892Z,99965.28
2022-09-05T09:34:53.377Z,99964.56
2022-09-05T09:37:59.695Z,99967.59
2022-09-05T09:41:09.666Z,99960.56
2022-09-05T09:44:11.633Z,99958.31
2022-09-05T09:46:44.631Z,99959.16
2022-09-05T09:49:39.297Z,99953.03
2022-09-05T09:52:46.194Z,99949.75
2022-09-05T09:56:00.363Z,99944.84
2022-09-05T09:59:24.002Z,99942.22
2022-09-05T10:02:34.184Z,99946.94
2022-09-05T10:10:55.364Z,99943.75
2022-09-05T10:10:57.757Z,99936.63
2022-09-05T10:12:10.197Z,99946.13
2022-09-05T10:15:30.379Z,99936.25
2022-09-05T10:18:24.084Z,99934.66
2022-09-05T10:21:17.847Z,99936.84
2022-09-05T10:24:54.760Z,99924.19
2022-09-05T10:27:39.193Z,99920.66
2022-09-05T10:30:57.387Z,99930.03
2022-09-05T10:35:15.319Z,99920.41
2022-09-05T10:36:25.965Z,99916.88
2022-09-05T10:39:07.998Z,99913.59
2022-09-05T10:41:50.149Z,99909.84
2022-09-05T10:44:33.970Z,99906.47
2022-09-05T10:47:19.425Z,99899.97
2022-09-05T10:49:51.695Z,99897.19
2022-09-05T10:52:34.014Z,99890.31
2022-09-05T10:55:18.907Z,99885.41
2022-09-05T10:58:01.916Z,99881.97
2022-09-05T11:02:26.037Z,99874.72
2022-09-05T11:03:56.643Z,99870.66
2022-09-05T11:06:50.921Z,99873.03
2022-09-05T11:09:45.650Z,99860.28
2022-09-05T11:12:32.974Z,99866.75
2022-09-05T11:15:06.492Z,99866.69
2022-09-05T11:17:43.844Z,99861.47
2022-09-05T11:20:47.632Z,99857.94
2022-09-05T11:23:23.164Z,99865.34
2022-09-05T11:26:04.523Z,99863.75
2022-09-05T11:29:00.238Z,99869.47
2022-09-05T11:32:04.255Z,99861.34
2022-09-05T11:40:06.815Z,99867.38
2022-09-05T11:40:08.820Z,99859.69
2022-09-05T11:42:25.702Z,99862.47
2022-09-05T11:46:08.828Z,99864.84
2022-09-05T11:49:14.747Z,99862.06
2022-09-05T11:52:36.210Z,99855.59
2022-09-05T11:56:01.367Z,99851.94
2022-09-05T11:59:08.119Z,99854.78
2022-09-05T12:01:47.628Z,99853.97
2022-09-05T12:05:49.921Z,99854.41
2022-09-05T12:07:57.571Z,99849.06
2022-09-05T12:10:46.989Z,99849.09
2022-09-05T12:13:42.642Z,99841.78
2022-09-05T12:16:54.624Z,99834.34
2022-09-05T12:19:34.535Z,99826.69
2022-09-05T12:22:29.882Z,99824.81
2022-09-05T12:27:38.358Z,99816.97
2022-09-05T12:29:27.409Z,99820.53
2022-09-05T12:32:50.296Z,99815.44
2022-09-05T12:36:04.141Z,99810.81
2022-09-05T12:40:54.087Z,99816.38
2022-09-05T12:41:34.386Z,99818.06
2022-09-05T12:44:38.963Z,99804.47
2022-09-05T12:46:00.692Z,99802.50
2022-09-05T12:48:39.332Z,99795.13
2022-09-05T12:51:44.779Z,99806.50
2022-09-05T12:54:24.369Z,99804.41
2022-09-05T13:02:25.041Z,99803.59
2022-09-05T13:03:05.043Z,99797.78
2022-09-05T13:03:07.543Z,99801.88
2022-09-05T13:05:53.252Z,99792.78
2022-09-05T13:08:25.565Z,99797.81
2022-09-05T13:14:46.290Z,99807.72
2022-09-05T13:14:58.635Z,99798.88
2022-09-05T13:16:49.234Z,99792.38
2022-09-05T13:19:34.364Z,99796.03
2022-09-05T13:22:04.843Z,99791.38
2022-09-05T13:24:41.576Z,99782.50
2022-09-05T13:27:16.245Z,99776.88
2022-09-05T13:31:45.369Z,99783.22
2022-09-05T13:38:03.378Z,99776.19
2022-09-05T13:38:05.047Z,99768.47
2022-09-05T13:38:50.210Z,99762.63
2022-09-05T13:41:28.628Z,99764.00
2022-09-05T13:44:00.617Z,99757.00
2022-09-05T13:46:58.497Z,99752.81
2022-09-05T13:49:33.416Z,99757.25
2022-09-05T13:52:29.102Z,99748.63
2022-09-05T13:55:22.429Z,99750.84
2022-09-05T13:57:58.704Z,99739.97
2022-09-05T14:01:30.266Z,99739.91
2022-09-05T14:08:20.468Z,99734.97
2022-09-05T14:11:47.868Z,99733.88
2022-09-05T14:17:54.291Z,99720.94
2022-09-05T14:20:49.831Z,99724.78
2022-09-05T14:23:24.936Z,99723.91
2022-09-05T14:26:00.063Z,99716.09
2022-09-05T14:28:38.812Z,99710.53
2022-09-05T14:33:31.119Z,99710.56
2022-09-05T14:37:48.159Z,99713.81
2022-09-05T14:38:00.544Z,99719.19
2022-09-05T14:41:23.616Z,99710.81
2022-09-05T14:44:42.361Z,99717.19
2022-09-05T14:47:54.009Z,99722.47
2022-09-05T14:50:54.281Z,99717.78
2022-09-05T14:59:51.129Z,99724.03
2022-09-05T15:02:41.619Z,99727.44
2022-09-05T15:02:58.031Z,99717.91
2022-09-05T15:05:35.798Z,99716.03
2022-09-05T15:08:55.340Z,99716.50
2022-09-05T15:12:17.099Z,99712.84
2022-09-05T15:14:03.834Z,99705.13
2022-09-05T15:16:35.704Z,99703.06
2022-09-05T15:19:04.341Z,99707.91
2022-09-05T15:21:38.213Z,99702.56
2022-09-05T15:24:19.268Z,99701.69
2022-09-05T15:26:53.418Z,99707.34
2022-09-05T15:29:26.827Z,99704.84
2022-09-05T15:32:14.674Z,99708.38
2022-09-05T15:34:43.272Z,99716.91
2022-09-05T15:37:30.337Z,99703.44
2022-09-05T15:40:23.345Z,99710.31
2022-09-05T15:42:56.246Z,99704.22
2022-09-05T15:45:29.883Z,99702.56
2022-09-05T15:48:16.468Z,99702.53
2022-09-05T15:50:50.309Z,99697.69
2022-09-05T15:53:26.140Z,99702.16
2022-09-05T15:56:01.112Z,99699.75
2022-09-05T15:58:52.810Z,99692.41
2022-09-05T16:01:59.057Z,99697.22
2022-09-05T16:08:34.122Z,99695.94
2022-09-05T16:10:35.759Z,99682.13
2022-09-05T16:10:48.665Z,99691.41
2022-09-05T16:13:14.038Z,99685.25
2022-09-05T16:23:11.697Z,99687.63
2022-09-05T16:23:18.147Z,99694.44
2022-09-05T16:23:34.271Z,99690.34
2022-09-05T16:24:38.594Z,99676.03
2022-09-05T16:27:43.877Z,99668.19
2022-09-05T16:30:20.922Z,99674.22
2022-09-05T16:32:51.827Z,99677.38
2022-09-05T16:35:24.974Z,99686.59
2022-09-05T16:38:06.929Z,99678.06
2022-09-05T16:40:40.146Z,99680.03
2022-09-05T16:43:14.091Z,99681.19
2022-09-05T16:45:51.866Z,99679.06
2022-09-05T16:48:43.494Z,99677.38
2022-09-05T16:51:35.914Z,99680.16
2022-09-05T16:54:13.911Z,99680.13
2022-09-05T16:56:46.752Z,99684.88
2022-09-05T16:59:21.347Z,99694.47
2022-09-05T17:02:09.004Z,99680.91
2022-09-05T17:05:03.146Z,99681.59
2022-09-05T17:07:57.710Z,99678.63
2022-09-05T17:10:31.822Z,99686.25
2022-09-05T17:13:00.994Z,99674.81
2022-09-05T17:15:36.169Z,99691.69
2022-09-05T17:18:21.676Z,99674.22
2022-09-05T17:21:01.487Z,99689.00
2022-09-05T17:29:20.889Z,99681.25
2022-09-05T17:29:26.225Z,99682.31
2022-09-05T17:31:25.228Z,99678.91
2022-09-05T17:32:48.563Z,99686.88
2022-09-05T17:35:57.011Z,99687.97
2022-09-05T17:39:03.942Z,99682.16
2022-09-05T17:42:02.305Z,99682.06
2022-09-05T17:44:53.154Z,99689.28
2022-09-05T17:47:28.863Z,99690.88
2022-09-05T17:50:51.215Z,99681.81
2022-09-05T17:53:25.630Z,99677.44
2022-09-05T17:56:14.553Z,99686.97
2022-09-05T17:59:08.288Z,99687.28
2022-09-05T18:01:37.442Z,99703.50
2022-09-05T18:04:16.167Z,99705.41
2022-09-05T18:06:59.728Z,99702.53
2022-09-05T18:10:11.867Z,99710.44
2022-09-05T18:16:12.838Z,99714.91
2022-09-05T18:19:32.574Z,99717.63
2022-09-05T18:21:54.247Z,99720.09
2022-09-05T18:24:36.165Z,99718.69
2022-09-05T18:27:44.014Z,99724.47
2022-09-05T18:30:28.555Z,99722.59
2022-09-05T18:34:03.302Z,99731.25
2022-09-05T18:36:35.277Z,99728.97
2022-09-05T18:39:43.488Z,99726.81
2022-09-05T18:42:33.435Z,99732.91
2022-09-05T18:45:14.661Z,99724.44
2022-09-05T18:47:50.947Z,99730.53
2022-09-05T18:50:28.344Z,99727.72
2022-09-05T18:53:08.711Z,99732.19
2022-09-05T18:56:12.843Z,99731.00
2022-09-05T18:58:52.065Z,99730.53
2022-09-05T19:01:38.812Z,99728.91
2022-09-05T19:04:40.415Z,99726.09
2022-09-05T19:07:11.793Z,99730.53
2022-09-05T19:10:03.627Z,99732.84
2022-09-05T19:12:55.025Z,99723.53
2022-09-05T19:15:26.501Z,99726.31
2022-09-05T19:18:03.647Z,99722.94
2022-09-05T19:21:16.721Z,99718.66
2022-09-05T19:23:54.935Z,99720.59
2022-09-05T19:26:24.758Z,99726.94
2022-09-05T19:35:45.437Z,99721.47
2022-09-05T19:36:55.345Z,99723.47
2022-09-05T19:37:13.757Z,99717.31
2022-09-05T19:37:46.416Z,99718.03
2022-09-05T19:47:28.265Z,99723.03
2022-09-05T19:47:35.660Z,99718.56
2022-09-05T19:47:43.622Z,99724.00
2022-09-05T19:49:08.835Z,99717.50
2022-09-05T19:51:39.320Z,99718.59
2022-09-05T19:54:09.071Z,99710.78
2022-09-05T19:56:41.466Z,99719.03
2022-09-05T19:59:22.763Z,99709.47
2022-09-05T20:01:53.392Z,99706.91
2022-09-05T20:04:23.149Z,99708.69
2022-09-05T20:06:52.044Z,99708.59
2022-09-05T20:09:23.745Z,99705.19
2022-09-05T20:11:54.410Z,99707.56
2022-09-05T20:14:26.898Z,99711.91
2022-09-05T20:17:01.458Z,99705.81
2022-09-05T20:19:34.073Z,99699.38
2022-09-05T20:22:24.266Z,99706.53
2022-09-05T20:24:57.028Z,99704.91
2022-09-05T20:27:29.935Z,99706.41
2022-09-05T20:30:01.881Z,99701.03
2022-09-05T20:32:39.866Z,99701.72
2022-09-05T20:42:15.739Z,99702.34
2022-09-05T20:43:19.344Z,99706.59
2022-09-05T20:43:27.434Z,99698.75
2022-09-05T20:44:01.587Z,99701.44
2022-09-05T20:51:15.622Z,99698.06
2022-09-05T20:54:10.094Z,99702.03
2022-09-05T20:54:21.353Z,99701.69
2022-09-05T20:55:41.814Z,99694.44
2022-09-05T20:58:13.843Z,99697.72
2022-09-05T21:01:20.370Z,99696.88
2022-09-05T21:03:41.583Z,99698.41
2022-09-05T21:06:24.682Z,99701.13
2022-09-05T21:08:56.035Z,99698.69
2022-09-05T21:11:33.792Z,99688.81
2022-09-05T21:14:05.676Z,99692.34
2022-09-05T21:16:43.886Z,99690.59
2022-09-05T21:19:25.212Z,99694.69
2022-09-05T21:22:06.942Z,99698.91
2022-09-05T21:24:36.231Z,99693.16
2022-09-05T21:27:17.945Z,99697.63
2022-09-05T21:29:53.046Z,99693.06
2022-09-05T21:32:37.970Z,99688.00
2022-09-05T21:35:33.787Z,99685.78
2022-09-05T21:38:02.685Z,99688.34
2022-09-05T21:40:31.230Z,99684.16
2022-09-05T21:47:29.446Z,99684.38
2022-09-05T21:47:48.295Z,99684.56
2022-09-05T21:48:37.863Z,99680.44
2022-09-05T21:51:10.095Z,99680.34
2022-09-05T21:59:13.185Z,99676.25
2022-09-05T21:59:26.234Z,99687.38
2022-09-05T21:59:38.836Z,99680.47
2022-09-05T22:02:17.332Z,99674.22
2022-09-05T22:04:47.278Z,99678.19
2022-09-05T22:07:26.383Z,99679.25
2022-09-05T22:10:04.555Z,99668.59
2022-09-05T22:12:36.078Z,99675.25
2022-09-05T22:15:27.673Z,99673.94
2022-09-05T22:18:17.777Z,99664.47
2022-09-05T22:21:26.820Z,99663.50
2022-09-05T22:23:41.342Z,99663.38
2022-09-05T22:26:11.234Z,99658.81
2022-09-05T22:28:48.733Z,99651.44
2022-09-05T22:31:18.197Z,99662.47
2022-09-05T22:33:51.295Z,99658.72
2022-09-05T22:36:26.830Z,99655.34
2022-09-05T22:38:55.733Z,99657.31
2022-09-05T22:41:30.306Z,99652.38
2022-09-05T22:43:59.631Z,99657.53
2022-09-05T22:46:28.272Z,99652.59
2022-09-05T22:48:56.882Z,99660.53
2022-09-05T22:51:25.476Z,99655.59
2022-09-05T22:53:53.871Z,99655.47
2022-09-05T22:56:36.327Z,99646.44
2022-09-05T22:59:05.925Z,99649.25
2022-09-05T23:01:35.018Z,99645.97
2022-09-05T23:04:04.210Z,99639.88
2022-09-05T23:06:33.039Z,99641.06
2022-09-05T23:09:01.600Z,99642.09
2022-09-05T23:11:31.988Z,99642.41
2022-09-05T23:14:00.381Z,99636.34
2022-09-05T23:16:29.024Z,99626.16
2022-09-05T23:18:57.989Z,99623.72
2022-09-05T23:21:26.471Z,99620.44
2022-09-05T23:23:54.848Z,99624.72
2022-09-05T23:26:23.533Z,99630.19
2022-09-05T23:28:53.554Z,99618.84
2022-09-05T23:31:22.101Z,99626.75
2022-09-05T23:33:51.236Z,99620.63
2022-09-05T23:36:19.624Z,99622.19
2022-09-05T23:38:47.964Z,99614.44
2022-09-05T23:41:17.287Z,99610.69
2022-09-05T23:43:45.774Z,99619.41
2022-09-05T23:46:15.583Z,99618.09
2022-09-05T23:48:43.977Z,99624.88
2022-09-05T23:51:14.510Z,99616.31
2022-09-05T23:53:43.306Z,99615.03
2022-09-05T23:56:12.612Z,99615.72
2022-09-05T23:58:43.372Z,99625.63
